Time;durP1;ratioP1;P1;durP2;ratioP2;P2;SDS_P1;SDS_P2;PMS_P1;PMS_P2;Temp;Humidity;BMP_temperature;BMP_pressure;BME280_temperature;BME280_humidity;BME280_pressure;Samples;Min_cycle;Max_cycle;Signal;HPM_P1;HPM_P2
2022/04/06 00:00:55;;;;;;;2.67;1.58;;;;;;;;;;6265502;22;20018;-95
2022/04/06 00:03:24;;;;;;;8.50;3.40;;;;;;;;;;6266550;22;20015;-96
2022/04/06 00:06:09;;;;;;;5.88;2.38;;;;;;;;;;6267087;22;20018;-95
2022/04/06 00:08:39;;;;;;;6.53;2.45;;;;;;;;;;6267576;22;20011;-96
2022/04/06 00:11:14;;;;;;;2.67;1.38;;;;;;;;;;6266056;22;20019;-95
2022/04/06 00:13:55;;;;;;;5.40;1.88;;;;;;;;;;6267866;22;20015;-95
2022/04/06 00:16:21;;;;;;;1.95;1.42;;;;;;;;;;6266395;22;20341;-95
2022/04/06 00:18:55;;;;;;;6.15;1.55;;;;;;;;;;6266054;22;20022;-96
2022/04/06 00:21:32;;;;;;;6.07;1.90;;;;;;;;;;6279525;22;20078;-96
2022/04/06 00:23:59;;;;;;;6.78;2.53;;;;;;;;;;6265301;22;20345;-96
2022/04/06 00:26:25;;;;;;;5.57;1.90;;;;;;;;;;6266467;22;20012;-96
2022/04/06 00:28:53;;;;;;;7.03;3.10;;;;;;;;;;6266837;22;20011;-95
2022/04/06 00:31:20;;;;;;;3.90;1.25;;;;;;;;;;6266992;22;20026;-95
2022/04/06 00:33:51;;;;;;;3.58;1.70;;;;;;;;;;6266379;22;20011;-95
2022/04/06 00:36:29;;;;;;;19.15;4.53;;;;;;;;;;6267821;22;20034;-95
2022/04/06 00:39:03;;;;;;;2.33;0.80;;;;;;;;;;6266269;22;20021;-94
2022/04/06 00:41:33;;;;;;;5.88;1.83;;;;;;;;;;6266785;22;20015;-95
2022/04/06 00:44:34;;;;;;;2.47;1.27;;;;;;;;;;6266368;22;20011;-95
2022/04/06 00:47:02;;;;;;;0.93;0.77;;;;;;;;;;6272374;22;20030;-95
2022/04/06 00:49:39;;;;;;;5.75;2.20;;;;;;;;;;6267217;22;20047;-95
2022/04/06 00:52:18;;;;;;;1.83;1.00;;;;;;;;;;6267330;22;20053;-96
2022/04/06 00:54:58;;;;;;;2.95;1.60;;;;;;;;;;6267531;22;20015;-95
2022/04/06 00:57:30;;;;;;;2.33;1.67;;;;;;;;;;6267880;22;20012;-94
2022/04/06 00:59:59;;;;;;;3.30;2.13;;;;;;;;;;6265885;22;20022;-95
2022/04/06 01:02:26;;;;;;;6.55;2.28;;;;;;;;;;6263372;22;20019;-95
2022/04/06 01:05:13;;;;;;;11.27;1.95;;;;;;;;;;6268847;22;20011;-95
2022/04/06 01:07:49;;;;;;;6.88;3.15;;;;;;;;;;6266511;22;20086;-96
2022/04/06 01:10:18;;;;;;;3.97;2.47;;;;;;;;;;6266666;22;20022;-96
2022/04/06 01:12:48;;;;;;;6.72;2.75;;;;;;;;;;6268271;22;20019;-95
2022/04/06 01:15:18;;;;;;;7.75;3.22;;;;;;;;;;6266963;22;20023;-94
2022/04/06 01:17:48;;;;;;;5.85;1.23;;;;;;;;;;6268942;22;20518;-94
2022/04/06 01:20:24;;;;;;;6.03;1.48;;;;;;;;;;6266809;22;20030;-95
2022/04/06 01:22:51;;;;;;;0.73;0.70;;;;;;;;;;6267593;22;20019;-95
2022/04/06 01:25:27;;;;;;;2.15;1.55;;;;;;;;;;6268313;22;20073;-95
2022/04/06 01:28:01;;;;;;;9.70;3.75;;;;;;;;;;6268755;22;20019;-95
2022/04/06 01:30:32;;;;;;;1.58;0.88;;;;;;;;;;6268870;22;20015;-95
2022/04/06 01:32:59;;;;;;;6.55;1.90;;;;;;;;;;6268188;22;20071;-94
2022/04/06 01:35:31;;;;;;;1.02;0.73;;;;;;;;;;6267763;22;20011;-95
2022/04/06 01:38:03;;;;;;;2.92;2.17;;;;;;;;;;6268299;22;20344;-95
2022/04/06 01:40:35;;;;;;;6.63;2.80;;;;;;;;;;6267932;22;20019;-95
2022/04/06 01:43:06;;;;;;;1.67;0.73;;;;;;;;;;6267661;22;20015;-95
2022/04/06 01:45:33;;;;;;;3.53;1.55;;;;;;;;;;6266930;22;20019;-94
2022/04/06 01:47:59;;;;;;;4.18;1.58;;;;;;;;;;6267130;22;20011;-95
2022/04/06 01:53:22;;;;;;;8.45;2.72;;;;;;;;;;6292346;22;20074;-95
2022/04/06 01:55:48;;;;;;;1.55;1.23;;;;;;;;;;6266458;22;20015;-96
2022/04/06 01:58:15;;;;;;;11.18;1.45;;;;;;;;;;6266306;22;20015;-94
2022/04/06 02:01:09;;;;;;;6.40;1.52;;;;;;;;;;6265803;22;20037;-95
2022/04/06 02:03:38;;;;;;;1.92;1.30;;;;;;;;;;6266690;22;20315;-95
2022/04/06 02:06:18;;;;;;;5.47;2.22;;;;;;;;;;6267006;22;20008;-94
2022/04/06 02:08:50;;;;;;;1.90;0.98;;;;;;;;;;6267897;22;20072;-94
2022/04/06 02:11:18;;;;;;;2.10;1.40;;;;;;;;;;6266479;22;20034;-94
2022/04/06 02:13:53;;;;;;;9.15;2.72;;;;;;;;;;6268273;22;20067;-95
2022/04/06 02:16:32;;;;;;;3.53;1.13;;;;;;;;;;6269113;22;20011;-95
2022/04/06 02:19:01;;;;;;;2.80;1.88;;;;;;;;;;6267182;22;20008;-94
2022/04/06 02:21:36;;;;;;;13.55;1.27;;;;;;;;;;6267312;22;20046;-95
2022/04/06 02:24:02;;;;;;;4.85;1.65;;;;;;;;;;6265414;22;20011;-94
2022/04/06 02:26:37;;;;;;;1.27;0.95;;;;;;;;;;6265134;22;20309;-95
2022/04/06 02:29:08;;;;;;;7.78;2.58;;;;;;;;;;6267216;22;20023;-94
2022/04/06 02:31:34;;;;;;;7.45;1.70;;;;;;;;;;6268115;22;20468;-95
2022/04/06 02:34:03;;;;;;;8.93;3.10;;;;;;;;;;6267372;22;20026;-95
2022/04/06 02:36:37;;;;;;;5.07;2.13;;;;;;;;;;6267988;22;20022;-95
2022/04/06 02:39:09;;;;;;;3.28;1.88;;;;;;;;;;6268874;22;20022;-95
2022/04/06 02:41:38;;;;;;;6.20;1.50;;;;;;;;;;6266028;22;20021;-95
2022/04/06 02:44:05;;;;;;;3.58;1.92;;;;;;;;;;6267710;22;20460;-95
2022/04/06 02:46:31;;;;;;;3.30;1.80;;;;;;;;;;6267283;22;20018;-96
2022/04/06 02:48:58;;;;;;;7.60;2.25;;;;;;;;;;6267390;22;20038;-94
2022/04/06 02:51:27;;;;;;;10.25;3.05;;;;;;;;;;6267476;22;20015;-95
2022/04/06 02:54:02;;;;;;;18.02;3.47;;;;;;;;;;6268209;22;20022;-94
2022/04/06 02:56:31;;;;;;;4.65;1.73;;;;;;;;;;6266647;22;20015;-94
2022/04/06 02:59:01;;;;;;;9.95;3.25;;;;;;;;;;6267012;22;20038;-94
2022/04/06 03:01:37;;;;;;;5.18;1.52;;;;;;;;;;6267837;22;20019;-94
2022/04/06 03:04:17;;;;;;;5.47;2.40;;;;;;;;;;6266014;22;20172;-94
2022/04/06 03:06:52;;;;;;;11.05;2.70;;;;;;;;;;6267063;22;20022;-94
2022/04/06 03:09:18;;;;;;;9.00;1.77;;;;;;;;;;6267189;22;20011;-94
2022/04/06 03:11:45;;;;;;;4.55;2.13;;;;;;;;;;6266839;22;20030;-95
2022/04/06 03:14:22;;;;;;;3.72;1.85;;;;;;;;;;6268715;22;20062;-94
2022/04/06 03:16:50;;;;;;;24.83;4.85;;;;;;;;;;6267105;22;20015;-94
2022/04/06 03:19:19;;;;;;;6.53;3.28;;;;;;;;;;6266988;22;20022;-95
2022/04/06 03:21:56;;;;;;;9.23;3.92;;;;;;;;;;6267387;22;20026;-95
2022/04/06 03:24:28;;;;;;;6.85;1.92;;;;;;;;;;6267426;22;20446;-96
2022/04/06 03:27:00;;;;;;;14.98;4.10;;;;;;;;;;6268579;22;20031;-94
2022/04/06 03:29:32;;;;;;;6.45;3.20;;;;;;;;;;6267699;22;20046;-95
2022/04/06 03:31:59;;;;;;;8.88;3.40;;;;;;;;;;6267191;22;20022;-95
2022/04/06 03:34:34;;;;;;;0.55;0.55;;;;;;;;;;6267568;22;20057;-95
2022/04/06 03:37:06;;;;;;;13.07;3.88;;;;;;;;;;6265250;22;20011;-95
2022/04/06 03:39:32;;;;;;;18.92;3.67;;;;;;;;;;6266687;22;20015;-95
2022/04/06 03:42:07;;;;;;;10.18;4.28;;;;;;;;;;6267388;22;20011;-95
2022/04/06 03:44:40;;;;;;;7.30;3.30;;;;;;;;;;6267282;22;20019;-95
2022/04/06 03:47:08;;;;;;;3.10;1.90;;;;;;;;;;6265457;22;20022;-94
2022/04/06 03:49:37;;;;;;;18.02;3.85;;;;;;;;;;6266128;22;20042;-94
2022/04/06 03:52:04;;;;;;;4.43;1.92;;;;;;;;;;6266006;22;20019;-94
2022/04/06 03:54:33;;;;;;;6.57;3.97;;;;;;;;;;6266489;22;20200;-94
2022/04/06 03:57:01;;;;;;;6.03;1.70;;;;;;;;;;6265585;22;20021;-93
2022/04/06 03:59:31;;;;;;;10.27;3.42;;;;;;;;;;6264088;22;20345;-95
2022/04/06 04:01:57;;;;;;;3.65;1.58;;;;;;;;;;6265153;22;20019;-94
2022/04/06 04:04:25;;;;;;;5.97;2.30;;;;;;;;;;6264422;22;20023;-94
2022/04/06 04:06:59;;;;;;;5.63;2.83;;;;;;;;;;6266068;22;20376;-94
2022/04/06 04:09:31;;;;;;;9.88;2.67;;;;;;;;;;6265320;22;20341;-95
2022/04/06 04:12:00;;;;;;;5.72;2.28;;;;;;;;;;6264794;22;20019;-94
2022/04/06 04:14:29;;;;;;;1.85;1.05;;;;;;;;;;6264947;22;20031;-94
2022/04/06 04:16:57;;;;;;;5.07;1.27;;;;;;;;;;6265256;22;20042;-93
2022/04/06 04:19:25;;;;;;;8.20;1.58;;;;;;;;;;6264750;22;20041;-92
2022/04/06 04:21:54;;;;;;;5.47;1.98;;;;;;;;;;6264672;22;20051;-94
2022/04/06 04:24:22;;;;;;;6.22;2.22;;;;;;;;;;6264334;22;20011;-93
2022/04/06 04:26:51;;;;;;;2.20;1.00;;;;;;;;;;6264512;22;20069;-94
2022/04/06 04:29:17;;;;;;;3.40;1.52;;;;;;;;;;6264556;22;20007;-93
2022/04/06 04:31:47;;;;;;;9.00;1.65;;;;;;;;;;6265518;22;20424;-94
2022/04/06 04:34:18;;;;;;;8.77;2.65;;;;;;;;;;6290871;22;20012;-93
2022/04/06 04:36:47;;;;;;;1.73;0.90;;;;;;;;;;6264399;22;20379;-93
2022/04/06 04:39:14;;;;;;;5.78;1.55;;;;;;;;;;6265204;22;20026;-94
2022/04/06 04:41:40;;;;;;;9.18;2.65;;;;;;;;;;6264977;22;20383;-94
2022/04/06 04:44:15;;;;;;;4.05;1.65;;;;;;;;;;6266582;22;20022;-93
2022/04/06 04:46:41;;;;;;;2.33;0.80;;;;;;;;;;6266631;22;20047;-93
2022/04/06 04:49:08;;;;;;;8.48;1.42;;;;;;;;;;6269452;22;20011;-93
2022/04/06 04:51:40;;;;;;;4.20;1.13;;;;;;;;;;6270517;22;20038;-93
2022/04/06 04:54:10;;;;;;;4.78;2.38;;;;;;;;;;6270899;22;20019;-92
2022/04/06 04:56:42;;;;;;;12.90;3.15;;;;;;;;;;6272289;22;20030;-93
2022/04/06 04:59:11;;;;;;;3.10;1.65;;;;;;;;;;6270260;22;20019;-93
2022/04/06 05:01:40;;;;;;;15.27;2.63;;;;;;;;;;6271672;22;20026;-94
2022/04/06 05:04:06;;;;;;;4.10;1.25;;;;;;;;;;6270206;22;20011;-93
2022/04/06 05:06:33;;;;;;;4.38;1.30;;;;;;;;;;6270735;22;20037;-93
2022/04/06 05:09:01;;;;;;;3.97;1.75;;;;;;;;;;6270766;22;20440;-94
2022/04/06 05:11:30;;;;;;;8.50;2.05;;;;;;;;;;6270560;22;20042;-93
2022/04/06 05:13:59;;;;;;;1.42;1.15;;;;;;;;;;6271128;22;20026;-94
2022/04/06 05:16:25;;;;;;;3.50;1.45;;;;;;;;;;6270546;22;20019;-93
2022/04/06 05:18:53;;;;;;;3.83;0.82;;;;;;;;;;6270858;22;20109;-93
2022/04/06 05:21:22;;;;;;;5.93;1.50;;;;;;;;;;6271378;22;20497;-93
2022/04/06 05:23:57;;;;;;;2.35;1.02;;;;;;;;;;6270273;22;20344;-93
2022/04/06 05:26:26;;;;;;;6.03;2.00;;;;;;;;;;6269700;22;20015;-94
2022/04/06 05:28:53;;;;;;;0.47;0.47;;;;;;;;;;6269662;22;20022;-94
2022/04/06 05:31:19;;;;;;;0.68;0.40;;;;;;;;;;6270466;22;20015;-93
2022/04/06 05:33:51;;;;;;;4.28;1.52;;;;;;;;;;6296430;22;20011;-93
2022/04/06 05:36:17;;;;;;;4.55;1.85;;;;;;;;;;6269691;22;20075;-94
2022/04/06 05:38:46;;;;;;;5.47;2.10;;;;;;;;;;6270726;22;20072;-92
2022/04/06 05:41:15;;;;;;;2.42;1.52;;;;;;;;;;6271014;22;20015;-94
2022/04/06 05:43:47;;;;;;;3.33;2.58;;;;;;;;;;6270430;22;20026;-94
2022/04/06 05:46:13;;;;;;;1.23;0.95;;;;;;;;;;6270963;22;20015;-93
2022/04/06 05:48:39;;;;;;;1.85;1.42;;;;;;;;;;6270530;22;20372;-94
2022/04/06 05:51:11;;;;;;;5.25;1.70;;;;;;;;;;6270987;22;20011;-93
2022/04/06 05:53:40;;;;;;;4.90;1.67;;;;;;;;;;6270138;22;20102;-93
2022/04/06 05:56:12;;;;;;;2.95;1.30;;;;;;;;;;6295587;22;20042;-93
2022/04/06 05:58:46;;;;;;;0.88;0.63;;;;;;;;;;6268128;22;20146;-93
2022/04/06 06:01:12;;;;;;;1.80;0.85;;;;;;;;;;6269038;22;20015;-93
2022/04/06 06:03:38;;;;;;;1.52;0.70;;;;;;;;;;6265216;22;20022;-88
2022/04/06 06:06:06;;;;;;;8.20;2.53;;;;;;;;;;6295075;22;20011;-92
2022/04/06 06:08:39;;;;;;;1.73;1.15;;;;;;;;;;6268385;22;20023;-94
2022/04/06 06:11:08;;;;;;;2.90;0.85;;;;;;;;;;6269316;22;20022;-94
2022/04/06 06:13:34;;;;;;;9.43;1.13;;;;;;;;;;6265295;22;20015;-90
2022/04/06 06:16:03;;;;;;;4.95;1.15;;;;;;;;;;6267474;22;20019;-94
2022/04/06 06:18:38;;;;;;;1.75;0.65;;;;;;;;;;6271859;22;20022;-94
2022/04/06 06:21:05;;;;;;;2.25;0.60;;;;;;;;;;6269830;22;20026;-94
2022/04/06 06:23:32;;;;;;;1.58;0.38;;;;;;;;;;6268937;22;20015;-94
2022/04/06 06:26:03;;;;;;;15.38;6.00;;;;;;;;;;6270355;22;20022;-94
2022/04/06 06:28:32;;;;;;;2.80;0.68;;;;;;;;;;6268906;22;20022;-93
2022/04/06 06:31:02;;;;;;;11.43;1.52;;;;;;;;;;6295210;22;20039;-92
2022/04/06 06:33:29;;;;;;;5.35;0.90;;;;;;;;;;6268207;22;20018;-94
2022/04/06 06:36:01;;;;;;;0.93;0.60;;;;;;;;;;6268439;22;20023;-94
2022/04/06 06:38:29;;;;;;;3.95;0.98;;;;;;;;;;6268482;22;20034;-94
2022/04/06 06:40:55;;;;;;;3.30;1.42;;;;;;;;;;6267851;22;20290;-94
2022/04/06 06:43:22;;;;;;;2.95;1.15;;;;;;;;;;6265439;22;20064;-92
2022/04/06 06:45:48;;;;;;;2.92;0.88;;;;;;;;;;6267696;22;20017;-93
2022/04/06 06:48:16;;;;;;;12.30;2.13;;;;;;;;;;6267943;22;20012;-93
2022/04/06 06:50:45;;;;;;;25.95;2.58;;;;;;;;;;6269280;22;20053;-94
2022/04/06 06:53:14;;;;;;;6.95;1.75;;;;;;;;;;6268882;22;20065;-94
2022/04/06 06:55:48;;;;;;;2.08;1.15;;;;;;;;;;6269906;22;20027;-94
2022/04/06 06:58:15;;;;;;;4.60;1.70;;;;;;;;;;6267183;22;20011;-94
2022/04/06 07:00:44;;;;;;;3.95;1.27;;;;;;;;;;6263714;22;20026;-96
2022/04/06 07:03:10;;;;;;;1.48;0.65;;;;;;;;;;6267913;22;20034;-93
2022/04/06 07:05:42;;;;;;;1.92;1.27;;;;;;;;;;6293521;22;20016;-94
2022/04/06 07:08:08;;;;;;;5.70;1.40;;;;;;;;;;6266697;22;20015;-95
2022/04/06 07:10:39;;;;;;;1.95;1.00;;;;;;;;;;6291202;22;20011;-93
2022/04/06 07:13:11;;;;;;;3.53;0.90;;;;;;;;;;6266504;22;20433;-94
2022/04/06 07:15:47;;;;;;;;;;;;;;;;;;;;;
2022/04/06 07:18:14;;;;;;;2.97;0.50;;;;;;;;;;6291395;22;20023;-91
2022/04/06 07:20:43;;;;;;;2.92;1.13;;;;;;;;;;6298217;22;20019;-91
2022/04/06 07:23:33;;;;;;;3.17;1.15;;;;;;;;;;6276804;22;20019;-96
2022/04/06 07:26:48;;;;;;;3.78;0.95;;;;;;;;;;6245670;22;20011;-96
2022/04/06 08:06:00;;;;;;;3.58;1.73;;;;;;;;;;6240429;22;20024;-91
2022/04/06 08:08:30;;;;;;;6.63;1.92;;;;;;;;;;6225229;23;20063;-91
2022/04/06 08:10:58;;;;;;;8.73;1.65;;;;;;;;;;6200743;23;20020;-92
2022/04/06 08:13:25;;;;;;;2.63;1.40;;;;;;;;;;6200998;23;20020;-93
2022/04/06 08:15:54;;;;;;;2.83;1.05;;;;;;;;;;6204477;23;20020;-96
2022/04/06 08:21:50;;;;;;;7.60;0.95;;;;;;;;;;6239352;23;20031;-94
2022/04/06 08:24:16;;;;;;;6.40;2.47;;;;;;;;;;6203267;23;20046;-93
2022/04/06 08:26:54;;;;;;;5.32;0.98;;;;;;;;;;6199857;23;20040;-91
2022/04/06 08:29:21;;;;;;;7.78;3.13;;;;;;;;;;6196857;23;20023;-90
2022/04/06 08:31:47;;;;;;;1.30;0.82;;;;;;;;;;6196221;23;20522;-91
2022/04/06 08:34:14;;;;;;;15.25;1.85;;;;;;;;;;6173663;23;20023;-91
2022/04/06 08:36:51;;;;;;;1.10;0.68;;;;;;;;;;6201684;23;20027;-96
2022/04/06 08:42:47;;;;;;;;;;;;;;;;;;;;;
2022/04/06 08:45:28;;;;;;;6.18;1.10;;;;;;;;;;6228081;23;20016;-96
2022/04/06 08:48:11;;;;;;;5.77;0.90;;;;;;;;;;6227829;23;20320;-90
2022/04/06 08:50:38;;;;;;;0.77;0.63;;;;;;;;;;6200324;23;20155;-93
2022/04/06 08:53:13;;;;;;;3.78;1.70;;;;;;;;;;6201515;23;20066;-93
2022/04/06 08:55:44;;;;;;;6.60;1.42;;;;;;;;;;6201578;23;20020;-93
2022/04/06 09:02:17;;;;;;;4.05;1.30;;;;;;;;;;6242094;23;20011;-95
2022/04/06 09:05:05;;;;;;;2.45;1.00;;;;;;;;;;6144781;23;20024;-90
2022/04/06 09:07:31;;;;;;;7.20;0.57;;;;;;;;;;6190113;23;20036;-90
2022/04/06 09:09:58;;;;;;;0.77;0.52;;;;;;;;;;6197717;23;20025;-92
2022/04/06 09:12:32;;;;;;;6.18;1.60;;;;;;;;;;6203584;23;20052;-93
2022/04/06 09:15:26;;;;;;;2.05;0.85;;;;;;;;;;6203099;23;20016;-93
2022/04/06 09:17:55;;;;;;;3.88;0.93;;;;;;;;;;6200813;23;20013;-94
2022/04/06 09:20:27;;;;;;;4.88;1.50;;;;;;;;;;6202667;23;20033;-95
2022/04/06 09:23:06;;;;;;;4.00;1.58;;;;;;;;;;6203598;23;20013;-95
2022/04/06 09:25:36;;;;;;;4.45;1.67;;;;;;;;;;6203006;23;20271;-94
2022/04/06 09:28:14;;;;;;;1.25;0.80;;;;;;;;;;6202912;23;20438;-93
2022/04/06 09:30:47;;;;;;;5.32;1.67;;;;;;;;;;6203368;23;20040;-95
2022/04/06 09:33:23;;;;;;;2.80;1.17;;;;;;;;;;6202592;23;20048;-93
2022/04/06 09:35:52;;;;;;;5.82;1.25;;;;;;;;;;6205401;23;20021;-92
2022/04/06 09:38:31;;;;;;;4.75;1.50;;;;;;;;;;6207546;23;20027;-95
2022/04/06 09:41:14;;;;;;;8.10;2.90;;;;;;;;;;6208136;23;20016;-96
2022/04/06 09:43:41;;;;;;;6.45;1.75;;;;;;;;;;6207585;23;20013;-96
2022/04/06 09:49:47;;;;;;;7.03;1.67;;;;;;;;;;6214744;23;20331;-96
2022/04/06 10:20:10;;;;;;;5.10;1.85;;;;;;;;;;6298396;22;20030;-93
2022/04/06 10:22:56;;;;;;;5.90;2.10;;;;;;;;;;6268607;22;20075;-96
2022/04/06 10:25:51;;;;;;;6.50;2.22;;;;;;;;;;6273184;22;20011;-96
2022/04/06 10:28:24;;;;;;;6.95;3.05;;;;;;;;;;6297680;22;20022;-96
2022/04/06 10:31:28;;;;;;;8.13;2.78;;;;;;;;;;6271501;22;20080;-95
2022/04/06 10:34:15;;;;;;;2.92;1.60;;;;;;;;;;6272201;22;20045;-96
2022/04/06 10:37:13;;;;;;;4.90;1.92;;;;;;;;;;6272873;22;20015;-93
2022/04/06 10:39:53;;;;;;;6.07;1.90;;;;;;;;;;6296806;22;20011;-94
2022/04/06 10:42:34;;;;;;;4.75;2.15;;;;;;;;;;6271879;22;20052;-93
2022/04/06 10:45:22;;;;;;;2.65;1.73;;;;;;;;;;6271530;22;20132;-93
2022/04/06 10:48:11;;;;;;;7.60;2.65;;;;;;;;;;6299731;22;20019;-94
2022/04/06 10:50:53;;;;;;;2.40;1.40;;;;;;;;;;6270741;22;20039;-95
2022/04/06 10:53:22;;;;;;;6.28;1.90;;;;;;;;;;6268700;22;20045;-93
2022/04/06 10:56:12;;;;;;;6.05;2.45;;;;;;;;;;6267657;22;20019;-93
2022/04/06 10:58:57;;;;;;;8.52;3.15;;;;;;;;;;6269582;22;20042;-91
2022/04/06 11:01:29;;;;;;;5.53;1.65;;;;;;;;;;6270156;22;20019;-92
2022/04/06 11:04:03;;;;;;;12.63;2.10;;;;;;;;;;6270667;22;20015;-93
2022/04/06 11:06:45;;;;;;;1.55;1.15;;;;;;;;;;6270425;22;20041;-97
2022/04/06 11:12:59;;;;;;;1.58;1.25;;;;;;;;;;6267375;22;20039;-96
2022/04/06 11:16:00;;;;;;;2.72;1.40;;;;;;;;;;6272088;22;20022;-96
2022/04/06 11:18:57;;;;;;;2.80;1.58;;;;;;;;;;6292085;22;20015;-96
2022/04/06 11:22:05;;;;;;;6.57;2.35;;;;;;;;;;6293989;22;20026;-95
2022/04/06 11:24:33;;;;;;;4.30;2.00;;;;;;;;;;6200007;22;20108;-92
2022/04/06 11:30:12;;;;;;;5.10;1.58;;;;;;;;;;6306326;22;20019;-96
2022/04/06 11:32:48;;;;;;;6.68;2.40;;;;;;;;;;6265478;22;20015;-91
2022/04/06 11:35:17;;;;;;;4.75;1.80;;;;;;;;;;6262616;22;20015;-96
2022/04/06 11:40:45;;;;;;;6.05;2.45;;;;;;;;;;6293966;22;20019;-93
2022/04/06 11:43:12;;;;;;;4.15;2.10;;;;;;;;;;6266508;22;20019;-92
2022/04/06 11:45:51;;;;;;;5.82;2.17;;;;;;;;;;6291273;22;20015;-92
2022/04/06 11:49:07;;;;;;;;;;;;;;;;;;;;;
2022/04/06 11:51:47;;;;;;;5.32;2.05;;;;;;;;;;6295862;22;20030;-95
2022/04/06 11:54:16;;;;;;;4.68;2.67;;;;;;;;;;6268332;22;20043;-93
2022/04/06 11:56:42;;;;;;;8.23;2.40;;;;;;;;;;6267649;22;20048;-93
2022/04/06 11:59:51;;;;;;;;;;;;;;;;;;;;;
2022/04/06 12:02:49;;;;;;;4.47;2.03;;;;;;;;;;6332149;22;20338;-90
2022/04/06 12:05:56;;;;;;;;;;;;;;;;;;;;;
2022/04/06 12:09:01;;;;;;;6.38;2.35;;;;;;;;;;6327341;22;20030;-96
2022/04/06 12:12:00;;;;;;;7.40;2.72;;;;;;;;;;6277284;22;20053;-96
2022/04/06 12:53:31;;;;;;;7.97;2.42;;;;;;;;;;6320159;22;20094;-92
2022/04/06 12:56:12;;;;;;;7.57;3.65;;;;;;;;;;6291785;22;20019;-92
2022/04/06 12:58:40;;;;;;;5.53;2.17;;;;;;;;;;6293777;22;20019;-91
2022/04/06 13:01:37;;;;;;;3.40;1.77;;;;;;;;;;6292550;22;20030;-95
2022/04/06 13:04:51;;;;;;;;;;;;;;;;;;;;;
2022/04/06 13:07:43;;;;;;;3.45;1.55;;;;;;;;;;6297459;22;20015;-96
2022/04/06 13:14:04;;;;;;;2.60;1.47;;;;;;;;;;6293391;22;20030;-96
2022/04/06 13:17:00;;;;;;;6.63;2.63;;;;;;;;;;6274301;22;20067;-96
2022/04/06 13:19:38;;;;;;;4.13;2.05;;;;;;;;;;6292039;22;20015;-94
2022/04/06 13:22:05;;;;;;;6.35;2.63;;;;;;;;;;6294770;22;20011;-92
2022/04/06 13:24:33;;;;;;;12.82;2.65;;;;;;;;;;6295025;22;20023;-94
2022/04/06 13:27:09;;;;;;;4.35;2.03;;;;;;;;;;6296461;22;20072;-96
2022/04/06 13:32:55;;;;;;;1.77;1.35;;;;;;;;;;6275967;22;19918;-96
2022/04/06 13:35:37;;;;;;;2.42;1.52;;;;;;;;;;6299864;22;20012;-96
2022/04/06 13:41:52;;;;;;;2.78;1.65;;;;;;;;;;6302516;22;20026;-96
2022/04/06 13:46:55;;;;;;;2.00;1.13;;;;;;;;;;6323773;22;20030;-94
2022/04/06 13:49:23;;;;;;;1.92;1.23;;;;;;;;;;6270004;22;20093;-95
2022/04/06 13:51:50;;;;;;;2.90;1.80;;;;;;;;;;6267360;22;20022;-93
2022/04/06 13:54:20;;;;;;;3.22;1.67;;;;;;;;;;6266779;22;20072;-91
2022/04/06 13:56:49;;;;;;;4.63;2.10;;;;;;;;;;6267614;22;20050;-91
2022/04/06 13:59:17;;;;;;;2.28;1.50;;;;;;;;;;6289989;22;20019;-89
2022/04/06 14:01:43;;;;;;;1.90;1.20;;;;;;;;;;6262067;22;20045;-87
2022/04/06 14:04:09;;;;;;;2.05;1.23;;;;;;;;;;6257743;22;20069;-87
2022/04/06 14:06:51;;;;;;;2.88;1.35;;;;;;;;;;6262026;22;20078;-95
2022/04/06 14:09:19;;;;;;;1.70;1.10;;;;;;;;;;6272111;22;20072;-93
2022/04/06 14:11:46;;;;;;;2.78;1.67;;;;;;;;;;6271032;22;20026;-94
2022/04/06 14:14:13;;;;;;;1.17;0.77;;;;;;;;;;6241328;22;20062;-92
2022/04/06 14:16:40;;;;;;;2.97;1.23;;;;;;;;;;6264204;22;20038;-91
2022/04/06 14:19:07;;;;;;;4.00;2.10;;;;;;;;;;6266080;22;20026;-92
2022/04/06 14:21:44;;;;;;;1.52;0.90;;;;;;;;;;6267983;22;20094;-93
2022/04/06 14:24:12;;;;;;;1.88;1.10;;;;;;;;;;6243250;22;20051;-93
2022/04/06 14:26:38;;;;;;;3.35;1.23;;;;;;;;;;6268679;22;20124;-93
2022/04/06 14:29:05;;;;;;;1.77;1.02;;;;;;;;;;6269497;22;20019;-92
2022/04/06 14:31:31;;;;;;;2.38;1.20;;;;;;;;;;6268888;22;20023;-93
2022/04/06 14:33:57;;;;;;;8.85;2.10;;;;;;;;;;6267538;22;20094;-93
2022/04/06 14:36:26;;;;;;;2.03;1.20;;;;;;;;;;6266626;22;20093;-93
2022/04/06 14:38:52;;;;;;;1.00;0.68;;;;;;;;;;6264301;22;20090;-90
2022/04/06 14:41:19;;;;;;;1.90;1.40;;;;;;;;;;6264146;22;20046;-90
2022/04/06 14:43:45;;;;;;;1.33;1.23;;;;;;;;;;6263426;22;20334;-88
2022/04/06 14:46:11;;;;;;;4.95;2.17;;;;;;;;;;6261940;22;20016;-90
2022/04/06 14:48:37;;;;;;;2.40;1.67;;;;;;;;;;6263309;22;20022;-89
2022/04/06 14:51:03;;;;;;;1.52;1.15;;;;;;;;;;6289383;22;20294;-92
2022/04/06 14:53:29;;;;;;;6.38;1.48;;;;;;;;;;6263643;22;20027;-92
2022/04/06 14:55:55;;;;;;;3.08;1.90;;;;;;;;;;6264296;22;20043;-92
2022/04/06 14:58:21;;;;;;;12.00;1.90;;;;;;;;;;6263033;22;20073;-87
2022/04/06 15:00:48;;;;;;;5.47;2.60;;;;;;;;;;6261380;22;20019;-89
2022/04/06 15:03:15;;;;;;;3.42;2.17;;;;;;;;;;6261815;22;20015;-89
2022/04/06 15:05:41;;;;;;;4.13;1.90;;;;;;;;;;6261497;22;20022;-90
2022/04/06 15:08:09;;;;;;;4.95;2.78;;;;;;;;;;6263570;22;20015;-92
2022/04/06 15:10:45;;;;;;;4.03;2.40;;;;;;;;;;6267060;22;20022;-93
2022/04/06 15:13:14;;;;;;;3.88;2.30;;;;;;;;;;6271730;22;20019;-95
2022/04/06 15:15:41;;;;;;;4.15;2.08;;;;;;;;;;6243810;22;20019;-94
2022/04/06 15:18:07;;;;;;;3.78;2.10;;;;;;;;;;6270635;22;20026;-94
2022/04/06 15:20:37;;;;;;;8.23;2.28;;;;;;;;;;6270244;22;20064;-94
2022/04/06 15:23:06;;;;;;;2.35;1.35;;;;;;;;;;6270122;22;20015;-94
2022/04/06 15:25:34;;;;;;;2.72;1.55;;;;;;;;;;6270087;22;20436;-94
2022/04/06 15:28:01;;;;;;;3.35;1.90;;;;;;;;;;6270729;22;20022;-94
2022/04/06 15:30:33;;;;;;;2.10;1.63;;;;;;;;;;6269670;22;20015;-94
2022/04/06 15:33:02;;;;;;;2.72;1.60;;;;;;;;;;6270299;22;20093;-94
2022/04/06 15:38:13;;;;;;;2.45;1.60;;;;;;;;;;6295276;22;20023;-94
2022/04/06 15:40:40;;;;;;;2.50;1.52;;;;;;;;;;6268944;22;20023;-94
2022/04/06 15:43:07;;;;;;;1.80;1.45;;;;;;;;;;6267966;22;20019;-95
2022/04/06 15:45:33;;;;;;;1.88;1.17;;;;;;;;;;6268752;22;20023;-94
2022/04/06 15:48:06;;;;;;;2.47;1.90;;;;;;;;;;6269587;22;20076;-94
2022/04/06 15:50:33;;;;;;;3.97;2.08;;;;;;;;;;6268833;22;20459;-94
2022/04/06 15:53:01;;;;;;;11.73;1.80;;;;;;;;;;6268846;22;20019;-93
2022/04/06 15:55:32;;;;;;;3.00;1.30;;;;;;;;;;6294440;22;20349;-94
2022/04/06 15:57:59;;;;;;;2.28;1.65;;;;;;;;;;6268502;22;20015;-94
2022/04/06 16:00:25;;;;;;;3.47;0.98;;;;;;;;;;6268450;22;20019;-94
2022/04/06 16:02:52;;;;;;;2.50;1.70;;;;;;;;;;6267871;22;20015;-93
2022/04/06 16:05:18;;;;;;;2.35;1.25;;;;;;;;;;6268096;22;20022;-94
2022/04/06 16:07:47;;;;;;;2.80;1.30;;;;;;;;;;6268518;22;20370;-93
2022/04/06 16:10:13;;;;;;;3.40;1.73;;;;;;;;;;6268868;22;20061;-94
2022/04/06 16:12:42;;;;;;;3.75;1.70;;;;;;;;;;6268175;22;20015;-95
2022/04/06 16:15:08;;;;;;;2.45;1.80;;;;;;;;;;6269122;22;20022;-94
2022/04/06 16:17:35;;;;;;;2.35;1.58;;;;;;;;;;6243531;22;20113;-93
2022/04/06 16:20:07;;;;;;;2.70;2.05;;;;;;;;;;6268948;22;20015;-94
2022/04/06 16:22:34;;;;;;;1.95;1.25;;;;;;;;;;6292849;22;20016;-93
2022/04/06 16:25:00;;;;;;;2.33;1.48;;;;;;;;;;6269155;22;20007;-95
2022/04/06 16:27:26;;;;;;;1.48;1.00;;;;;;;;;;6267755;22;20468;-94
2022/04/06 16:29:52;;;;;;;1.10;0.90;;;;;;;;;;6268619;22;20026;-94
2022/04/06 16:32:18;;;;;;;3.13;1.45;;;;;;;;;;6268247;22;20015;-94
2022/04/06 16:34:48;;;;;;;0.75;0.68;;;;;;;;;;6267471;22;20512;-94
2022/04/06 16:37:14;;;;;;;0.88;0.75;;;;;;;;;;6267418;22;20051;-93
2022/04/06 16:39:44;;;;;;;1.70;0.90;;;;;;;;;;6267368;22;20057;-94
2022/04/06 16:42:12;;;;;;;2.45;1.58;;;;;;;;;;6293449;22;20015;-94
2022/04/06 16:44:38;;;;;;;1.88;0.75;;;;;;;;;;6267899;22;20044;-94
2022/04/06 16:47:05;;;;;;;3.28;1.00;;;;;;;;;;6268600;22;20057;-94
2022/04/06 16:55:03;;;;;;;0.45;0.45;;;;;;;;;;6294294;22;20061;-93
2022/04/06 16:57:30;;;;;;;0.50;0.43;;;;;;;;;;6268738;22;20019;-94
2022/04/06 16:59:56;;;;;;;1.20;0.70;;;;;;;;;;6268300;22;20049;-93
2022/04/06 17:02:25;;;;;;;1.67;0.63;;;;;;;;;;6268435;22;20023;-93
2022/04/06 17:04:59;;;;;;;1.98;0.60;;;;;;;;;;6268705;22;20015;-93
2022/04/06 17:07:25;;;;;;;0.88;0.73;;;;;;;;;;6268020;22;20015;-93
2022/04/06 17:09:53;;;;;;;0.82;0.40;;;;;;;;;;6268436;22;20081;-94
2022/04/06 17:12:21;;;;;;;0.77;0.68;;;;;;;;;;6267798;22;20076;-93
2022/04/06 17:14:47;;;;;;;1.73;0.80;;;;;;;;;;6268068;22;20019;-93
2022/04/06 17:17:17;;;;;;;0.90;0.80;;;;;;;;;;6267091;22;20064;-94
2022/04/06 17:19:44;;;;;;;1.30;0.75;;;;;;;;;;6267391;22;20023;-94
2022/04/06 17:22:11;;;;;;;6.28;1.13;;;;;;;;;;6293316;22;20341;-94
2022/04/06 17:24:40;;;;;;;1.58;0.90;;;;;;;;;;6267740;22;20510;-94
2022/04/06 17:27:06;;;;;;;0.90;0.50;;;;;;;;;;6267126;22;20011;-94
2022/04/06 17:29:33;;;;;;;1.95;0.70;;;;;;;;;;6267626;22;20129;-92
2022/04/06 17:31:59;;;;;;;2.13;0.90;;;;;;;;;;6267402;22;20029;-92
2022/04/06 17:34:25;;;;;;;0.95;0.70;;;;;;;;;;6243144;22;20019;-94
2022/04/06 17:36:51;;;;;;;1.67;1.02;;;;;;;;;;6268287;22;20100;-92
2022/04/06 17:39:21;;;;;;;1.33;0.85;;;;;;;;;;6268272;22;20046;-93
2022/04/06 17:41:48;;;;;;;1.00;0.85;;;;;;;;;;6267305;22;20021;-91
2022/04/06 17:44:15;;;;;;;2.53;1.27;;;;;;;;;;6267636;22;20015;-93
2022/04/06 17:46:41;;;;;;;1.25;1.00;;;;;;;;;;6267459;22;20019;-93
2022/04/06 17:49:11;;;;;;;2.00;1.50;;;;;;;;;;6267405;22;20421;-92